sensor_id;sensor_type;location;lat;lon;timestamp;temperature;humidity
9410;DHT22;4744;52.576;13.568;2024-03-22T00:02:21;6.60;95.90
9410;DHT22;4744;52.576;13.568;2024-03-22T00:04:47;6.50;96.10
9410;DHT22;4744;52.576;13.568;2024-03-22T00:07:13;6.60;96.00
9410;DHT22;4744;52.576;13.568;2024-03-22T00:09:40;6.60;96.00
9410;DHT22;4744;52.576;13.568;2024-03-22T00:12:06;6.60;96.10
9410;DHT22;4744;52.576;13.568;2024-03-22T00:14:33;6.60;95.90
9410;DHT22;4744;52.576;13.568;2024-03-22T00:17:01;6.70;95.80
9410;DHT22;4744;52.576;13.568;2024-03-22T00:19:27;6.70;95.90
9410;DHT22;4744;52.576;13.568;2024-03-22T00:21:53;6.70;95.80
9410;DHT22;4744;52.576;13.568;2024-03-22T00:24:20;6.70;95.70
9410;DHT22;4744;52.576;13.568;2024-03-22T00:26:46;6.70;95.80
9410;DHT22;4744;52.576;13.568;2024-03-22T00:29:13;6.70;95.70
9410;DHT22;4744;52.576;13.568;2024-03-22T00:31:39;6.70;95.70
9410;DHT22;4744;52.576;13.568;2024-03-22T00:34:07;6.70;95.50
9410;DHT22;4744;52.576;13.568;2024-03-22T00:36:33;6.70;95.50
9410;DHT22;4744;52.576;13.568;2024-03-22T00:39:00;6.70;95.30
9410;DHT22;4744;52.576;13.568;2024-03-22T00:41:26;6.70;95.40
9410;DHT22;4744;52.576;13.568;2024-03-22T00:43:53;6.70;95.30
9410;DHT22;4744;52.576;13.568;2024-03-22T00:46:18;6.70;94.90
9410;DHT22;4744;52.576;13.568;2024-03-22T00:48:45;6.70;95.10
9410;DHT22;4744;52.576;13.568;2024-03-22T00:51:13;6.70;95.30
9410;DHT22;4744;52.576;13.568;2024-03-22T00:53:39;6.70;95.30
9410;DHT22;4744;52.576;13.568;2024-03-22T00:56:06;6.70;95.40
9410;DHT22;4744;52.576;13.568;2024-03-22T00:58:33;6.70;95.30
9410;DHT22;4744;52.576;13.568;2024-03-22T01:00:59;6.70;95.10
9410;DHT22;4744;52.576;13.568;2024-03-22T01:03:25;6.70;95.00
9410;DHT22;4744;52.576;13.568;2024-03-22T01:05:52;6.90;94.30
9410;DHT22;4744;52.576;13.568;2024-03-22T01:08:19;6.90;94.30
9410;DHT22;4744;52.576;13.568;2024-03-22T01:10:46;6.90;94.00
9410;DHT22;4744;52.576;13.568;2024-03-22T01:13:12;6.90;94.00
9410;DHT22;4744;52.576;13.568;2024-03-22T01:15:39;6.80;94.20
9410;DHT22;4744;52.576;13.568;2024-03-22T01:18:05;6.80;94.50
9410;DHT22;4744;52.576;13.568;2024-03-22T01:20:32;6.80;94.60
9410;DHT22;4744;52.576;13.568;2024-03-22T01:22:59;6.80;95.00
9410;DHT22;4744;52.576;13.568;2024-03-22T01:25:27;6.80;94.90
9410;DHT22;4744;52.576;13.568;2024-03-22T01:27:54;6.80;95.00
9410;DHT22;4744;52.576;13.568;2024-03-22T01:30:21;6.80;95.20
9410;DHT22;4744;52.576;13.568;2024-03-22T01:32:47;6.80;95.40
9410;DHT22;4744;52.576;13.568;2024-03-22T01:35:14;6.80;95.00
9410;DHT22;4744;52.576;13.568;2024-03-22T01:37:40;6.80;95.00
9410;DHT22;4744;52.576;13.568;2024-03-22T01:40:08;6.80;95.30
9410;DHT22;4744;52.576;13.568;2024-03-22T01:42:36;6.80;95.50
9410;DHT22;4744;52.576;13.568;2024-03-22T01:45:03;6.80;95.50
9410;DHT22;4744;52.576;13.568;2024-03-22T01:47:29;6.80;95.70
9410;DHT22;4744;52.576;13.568;2024-03-22T01:49:56;6.80;95.70
9410;DHT22;4744;52.576;13.568;2024-03-22T01:52:22;6.80;95.70
9410;DHT22;4744;52.576;13.568;2024-03-22T01:54:50;6.80;95.90
9410;DHT22;4744;52.576;13.568;2024-03-22T01:57:16;6.80;96.00
9410;DHT22;4744;52.576;13.568;2024-03-22T01:59:44;6.80;96.20
9410;DHT22;4744;52.576;13.568;2024-03-22T02:02:12;6.80;96.30
9410;DHT22;4744;52.576;13.568;2024-03-22T02:04:38;6.70;96.70
9410;DHT22;4744;52.576;13.568;2024-03-22T02:07:04;6.70;97.20
9410;DHT22;4744;52.576;13.568;2024-03-22T02:09:31;6.80;97.10
9410;DHT22;4744;52.576;13.568;2024-03-22T02:11:57;6.80;97.10
9410;DHT22;4744;52.576;13.568;2024-03-22T02:14:24;6.70;97.50
9410;DHT22;4744;52.576;13.568;2024-03-22T02:16:52;6.70;97.80
9410;DHT22;4744;52.576;13.568;2024-03-22T02:19:19;6.70;98.00
9410;DHT22;4744;52.576;13.568;2024-03-22T02:21:45;6.70;98.20
9410;DHT22;4744;52.576;13.568;2024-03-22T02:24:13;6.70;98.30
9410;DHT22;4744;52.576;13.568;2024-03-22T02:26:39;6.70;98.70
9410;DHT22;4744;52.576;13.568;2024-03-22T02:29:06;6.70;98.60
9410;DHT22;4744;52.576;13.568;2024-03-22T02:31:32;6.80;98.50
9410;DHT22;4744;52.576;13.568;2024-03-22T02:33:59;6.70;98.70
9410;DHT22;4744;52.576;13.568;2024-03-22T02:36:26;6.80;98.60
9410;DHT22;4744;52.576;13.568;2024-03-22T02:38:52;6.80;98.80
9410;DHT22;4744;52.576;13.568;2024-03-22T02:41:20;6.70;98.80
9410;DHT22;4744;52.576;13.568;2024-03-22T02:43:46;6.70;99.10
9410;DHT22;4744;52.576;13.568;2024-03-22T02:46:12;6.70;99.00
9410;DHT22;4744;52.576;13.568;2024-03-22T02:48:39;6.70;99.40
9410;DHT22;4744;52.576;13.568;2024-03-22T02:51:05;6.70;99.10
9410;DHT22;4744;52.576;13.568;2024-03-22T02:53:32;6.70;99.20
9410;DHT22;4744;52.576;13.568;2024-03-22T02:56:00;6.70;99.10
9410;DHT22;4744;52.576;13.568;2024-03-22T02:58:27;6.70;99.30
9410;DHT22;4744;52.576;13.568;2024-03-22T03:00:54;6.80;99.00
9410;DHT22;4744;52.576;13.568;2024-03-22T03:03:20;6.80;98.90
9410;DHT22;4744;52.576;13.568;2024-03-22T03:05:47;6.70;99.10
9410;DHT22;4744;52.576;13.568;2024-03-22T03:08:13;6.80;98.80
9410;DHT22;4744;52.576;13.568;2024-03-22T03:10:40;6.80;98.70
9410;DHT22;4744;52.576;13.568;2024-03-22T03:13:06;6.80;98.70
9410;DHT22;4744;52.576;13.568;2024-03-22T03:15:34;6.70;98.80
9410;DHT22;4744;52.576;13.568;2024-03-22T03:18:00;6.70;98.60
9410;DHT22;4744;52.576;13.568;2024-03-22T03:20:27;6.80;98.50
9410;DHT22;4744;52.576;13.568;2024-03-22T03:22:53;6.80;98.30
9410;DHT22;4744;52.576;13.568;2024-03-22T03:25:21;6.80;98.20
9410;DHT22;4744;52.576;13.568;2024-03-22T03:27:46;6.80;98.10
9410;DHT22;4744;52.576;13.568;2024-03-22T03:30:14;6.80;98.00
9410;DHT22;4744;52.576;13.568;2024-03-22T03:32:41;6.80;98.10
9410;DHT22;4744;52.576;13.568;2024-03-22T03:35:08;6.80;97.90
9410;DHT22;4744;52.576;13.568;2024-03-22T03:37:34;6.80;97.90
9410;DHT22;4744;52.576;13.568;2024-03-22T03:40:01;6.70;97.90
9410;DHT22;4744;52.576;13.568;2024-03-22T03:42:27;6.70;98.00
9410;DHT22;4744;52.576;13.568;2024-03-22T03:44:55;6.70;98.00
9410;DHT22;4744;52.576;13.568;2024-03-22T03:47:21;6.70;98.10
9410;DHT22;4744;52.576;13.568;2024-03-22T03:49:49;6.70;97.70
9410;DHT22;4744;52.576;13.568;2024-03-22T03:52:15;6.70;97.50
9410;DHT22;4744;52.576;13.568;2024-03-22T03:54:42;6.70;97.50
9410;DHT22;4744;52.576;13.568;2024-03-22T03:57:08;6.70;97.20
9410;DHT22;4744;52.576;13.568;2024-03-22T03:59:35;6.70;97.30
9410;DHT22;4744;52.576;13.568;2024-03-22T04:02:01;6.70;97.30
9410;DHT22;4744;52.576;13.568;2024-03-22T04:04:28;6.70;97.20
9410;DHT22;4744;52.576;13.568;2024-03-22T04:06:55;6.70;97.40
9410;DHT22;4744;52.576;13.568;2024-03-22T04:09:22;6.70;96.80
9410;DHT22;4744;52.576;13.568;2024-03-22T04:11:48;6.70;96.80
9410;DHT22;4744;52.576;13.568;2024-03-22T04:14:15;6.80;96.50
9410;DHT22;4744;52.576;13.568;2024-03-22T04:16:41;6.80;96.10
9410;DHT22;4744;52.576;13.568;2024-03-22T04:19:07;6.80;95.80
9410;DHT22;4744;52.576;13.568;2024-03-22T04:21:33;6.80;95.70
9410;DHT22;4744;52.576;13.568;2024-03-22T04:24:02;6.90;95.30
9410;DHT22;4744;52.576;13.568;2024-03-22T04:26:28;6.90;95.30
9410;DHT22;4744;52.576;13.568;2024-03-22T04:28:55;6.90;95.20
9410;DHT22;4744;52.576;13.568;2024-03-22T04:31:20;6.90;95.10
9410;DHT22;4744;52.576;13.568;2024-03-22T04:33:47;6.90;95.10
9410;DHT22;4744;52.576;13.568;2024-03-22T04:36:13;6.90;94.90
9410;DHT22;4744;52.576;13.568;2024-03-22T04:38:41;6.90;94.70
9410;DHT22;4744;52.576;13.568;2024-03-22T04:41:10;6.90;94.90
9410;DHT22;4744;52.576;13.568;2024-03-22T04:43:37;6.80;95.10
9410;DHT22;4744;52.576;13.568;2024-03-22T04:46:04;6.80;95.30
9410;DHT22;4744;52.576;13.568;2024-03-22T04:48:30;6.80;95.00
9410;DHT22;4744;52.576;13.568;2024-03-22T04:50:57;6.80;95.10
9410;DHT22;4744;52.576;13.568;2024-03-22T04:53:22;6.80;94.80
9410;DHT22;4744;52.576;13.568;2024-03-22T04:55:50;6.80;94.90
9410;DHT22;4744;52.576;13.568;2024-03-22T04:58:19;6.90;94.80
9410;DHT22;4744;52.576;13.568;2024-03-22T05:00:47;6.90;94.30
9410;DHT22;4744;52.576;13.568;2024-03-22T05:03:13;6.90;94.50
9410;DHT22;4744;52.576;13.568;2024-03-22T05:05:40;6.90;94.50
9410;DHT22;4744;52.576;13.568;2024-03-22T05:10:34;6.90;94.10
9410;DHT22;4744;52.576;13.568;2024-03-22T05:13:01;6.90;94.30
9410;DHT22;4744;52.576;13.568;2024-03-22T05:15:29;6.90;94.10
9410;DHT22;4744;52.576;13.568;2024-03-22T05:17:57;6.90;94.10
9410;DHT22;4744;52.576;13.568;2024-03-22T05:20:24;6.90;94.10
9410;DHT22;4744;52.576;13.568;2024-03-22T05:22:52;6.90;94.10
9410;DHT22;4744;52.576;13.568;2024-03-22T05:25:18;6.90;94.20
9410;DHT22;4744;52.576;13.568;2024-03-22T05:27:45;6.90;94.40
9410;DHT22;4744;52.576;13.568;2024-03-22T05:30:12;6.90;94.30
9410;DHT22;4744;52.576;13.568;2024-03-22T05:32:41;6.80;94.30
9410;DHT22;4744;52.576;13.568;2024-03-22T05:35:07;6.80;94.30
9410;DHT22;4744;52.576;13.568;2024-03-22T05:37:34;6.90;94.20
9410;DHT22;4744;52.576;13.568;2024-03-22T05:40:01;6.90;93.90
9410;DHT22;4744;52.576;13.568;2024-03-22T05:42:29;6.90;94.00
9410;DHT22;4744;52.576;13.568;2024-03-22T05:44:55;6.90;94.10
9410;DHT22;4744;52.576;13.568;2024-03-22T05:47:22;6.90;94.20
9410;DHT22;4744;52.576;13.568;2024-03-22T05:49:49;6.90;93.80
9410;DHT22;4744;52.576;13.568;2024-03-22T05:52:17;6.90;93.70
9410;DHT22;4744;52.576;13.568;2024-03-22T05:54:42;6.90;94.10
9410;DHT22;4744;52.576;13.568;2024-03-22T05:57:09;6.90;94.00
9410;DHT22;4744;52.576;13.568;2024-03-22T05:59:36;7.00;93.80
9410;DHT22;4744;52.576;13.568;2024-03-22T06:02:03;7.00;93.70
9410;DHT22;4744;52.576;13.568;2024-03-22T06:04:29;7.00;93.60
9410;DHT22;4744;52.576;13.568;2024-03-22T06:06:57;7.00;93.20
9410;DHT22;4744;52.576;13.568;2024-03-22T06:09:25;7.10;92.90
9410;DHT22;4744;52.576;13.568;2024-03-22T06:12:00;7.20;92.70
9410;DHT22;4744;52.576;13.568;2024-03-22T06:14:27;7.20;92.70
9410;DHT22;4744;52.576;13.568;2024-03-22T06:16:55;7.20;92.40
9410;DHT22;4744;52.576;13.568;2024-03-22T06:19:20;7.20;92.10
9410;DHT22;4744;52.576;13.568;2024-03-22T06:21:48;7.30;92.10
9410;DHT22;4744;52.576;13.568;2024-03-22T06:24:16;7.30;91.30
9410;DHT22;4744;52.576;13.568;2024-03-22T06:26:43;7.40;91.30
9410;DHT22;4744;52.576;13.568;2024-03-22T06:29:08;7.40;91.30
9410;DHT22;4744;52.576;13.568;2024-03-22T06:31:35;7.40;91.10
9410;DHT22;4744;52.576;13.568;2024-03-22T06:34:01;7.50;90.70
9410;DHT22;4744;52.576;13.568;2024-03-22T06:36:28;7.40;90.80
9410;DHT22;4744;52.576;13.568;2024-03-22T06:38:54;7.50;91.00
9410;DHT22;4744;52.576;13.568;2024-03-22T06:41:23;7.50;90.40
9410;DHT22;4744;52.576;13.568;2024-03-22T06:43:49;7.50;90.50
9410;DHT22;4744;52.576;13.568;2024-03-22T06:46:16;7.50;90.60
9410;DHT22;4744;52.576;13.568;2024-03-22T06:48:42;7.50;90.50
9410;DHT22;4744;52.576;13.568;2024-03-22T06:51:09;7.50;90.20
9410;DHT22;4744;52.576;13.568;2024-03-22T06:53:35;7.50;89.80
9410;DHT22;4744;52.576;13.568;2024-03-22T06:56:02;7.50;90.00
9410;DHT22;4744;52.576;13.568;2024-03-22T06:58:29;7.60;89.60
9410;DHT22;4744;52.576;13.568;2024-03-22T07:00:56;7.60;89.20
9410;DHT22;4744;52.576;13.568;2024-03-22T07:03:22;7.60;89.20
9410;DHT22;4744;52.576;13.568;2024-03-22T07:05:49;7.60;89.60
9410;DHT22;4744;52.576;13.568;2024-03-22T07:08:15;7.80;89.10
9410;DHT22;4744;52.576;13.568;2024-03-22T07:10:42;7.70;89.70
9410;DHT22;4744;52.576;13.568;2024-03-22T07:13:09;7.80;89.00
9410;DHT22;4744;52.576;13.568;2024-03-22T07:15:37;7.80;89.00
9410;DHT22;4744;52.576;13.568;2024-03-22T07:18:04;7.80;88.30
9410;DHT22;4744;52.576;13.568;2024-03-22T07:20:31;7.80;88.70
9410;DHT22;4744;52.576;13.568;2024-03-22T07:22:57;7.90;88.00
9410;DHT22;4744;52.576;13.568;2024-03-22T07:25:24;8.00;87.60
9410;DHT22;4744;52.576;13.568;2024-03-22T07:27:50;8.00;88.10
9410;DHT22;4744;52.576;13.568;2024-03-22T07:30:17;8.00;88.00
9410;DHT22;4744;52.576;13.568;2024-03-22T07:32:45;8.00;87.80
9410;DHT22;4744;52.576;13.568;2024-03-22T07:35:13;8.00;87.60
9410;DHT22;4744;52.576;13.568;2024-03-22T07:37:39;8.10;87.80
9410;DHT22;4744;52.576;13.568;2024-03-22T07:40:07;8.10;88.30
9410;DHT22;4744;52.576;13.568;2024-03-22T07:42:33;8.10;88.40
9410;DHT22;4744;52.576;13.568;2024-03-22T07:45:00;8.10;88.00
9410;DHT22;4744;52.576;13.568;2024-03-22T07:47:26;8.00;88.20
9410;DHT22;4744;52.576;13.568;2024-03-22T07:49:54;8.00;88.90
9410;DHT22;4744;52.576;13.568;2024-03-22T07:52:20;8.00;90.00
9410;DHT22;4744;52.576;13.568;2024-03-22T07:54:47;8.00;91.10
9410;DHT22;4744;52.576;13.568;2024-03-22T07:57:13;8.00;91.00
9410;DHT22;4744;52.576;13.568;2024-03-22T07:59:40;8.00;90.90
9410;DHT22;4744;52.576;13.568;2024-03-22T08:02:06;8.00;90.90
9410;DHT22;4744;52.576;13.568;2024-03-22T08:04:32;8.00;91.70
9410;DHT22;4744;52.576;13.568;2024-03-22T08:07:00;8.10;91.30
9410;DHT22;4744;52.576;13.568;2024-03-22T08:09:27;8.10;91.10
9410;DHT22;4744;52.576;13.568;2024-03-22T08:11:53;8.20;90.60
9410;DHT22;4744;52.576;13.568;2024-03-22T08:14:19;8.20;90.20
9410;DHT22;4744;52.576;13.568;2024-03-22T08:16:45;8.30;89.80
9410;DHT22;4744;52.576;13.568;2024-03-22T08:19:12;8.30;89.50
9410;DHT22;4744;52.576;13.568;2024-03-22T08:21:38;8.40;88.70
9410;DHT22;4744;52.576;13.568;2024-03-22T08:24:07;8.40;89.00
9410;DHT22;4744;52.576;13.568;2024-03-22T08:26:33;8.40;89.30
9410;DHT22;4744;52.576;13.568;2024-03-22T08:29:00;8.50;89.20
9410;DHT22;4744;52.576;13.568;2024-03-22T08:31:26;8.50;89.00
9410;DHT22;4744;52.576;13.568;2024-03-22T08:33:54;8.50;88.70
9410;DHT22;4744;52.576;13.568;2024-03-22T08:36:21;8.60;87.90
9410;DHT22;4744;52.576;13.568;2024-03-22T08:38:49;8.60;88.00
9410;DHT22;4744;52.576;13.568;2024-03-22T08:41:16;8.60;88.00
9410;DHT22;4744;52.576;13.568;2024-03-22T08:43:43;8.70;87.50
9410;DHT22;4744;52.576;13.568;2024-03-22T08:46:10;8.70;87.50
9410;DHT22;4744;52.576;13.568;2024-03-22T08:48:37;8.70;87.50
9410;DHT22;4744;52.576;13.568;2024-03-22T08:51:03;8.80;87.60
9410;DHT22;4744;52.576;13.568;2024-03-22T08:53:30;8.80;87.00
9410;DHT22;4744;52.576;13.568;2024-03-22T08:55:56;8.80;87.50
9410;DHT22;4744;52.576;13.568;2024-03-22T08:58:25;8.90;87.00
9410;DHT22;4744;52.576;13.568;2024-03-22T09:00:51;8.90;87.20
9410;DHT22;4744;52.576;13.568;2024-03-22T09:03:19;9.00;87.00
9410;DHT22;4744;52.576;13.568;2024-03-22T09:05:46;9.00;86.80
9410;DHT22;4744;52.576;13.568;2024-03-22T09:08:13;9.00;86.50
9410;DHT22;4744;52.576;13.568;2024-03-22T09:10:39;9.20;86.20
9410;DHT22;4744;52.576;13.568;2024-03-22T09:13:06;9.20;86.00
9410;DHT22;4744;52.576;13.568;2024-03-22T09:15:34;9.20;86.10
9410;DHT22;4744;52.576;13.568;2024-03-22T09:18:01;9.30;85.70
9410;DHT22;4744;52.576;13.568;2024-03-22T09:20:27;9.40;85.70
9410;DHT22;4744;52.576;13.568;2024-03-22T09:22:54;9.40;85.90
9410;DHT22;4744;52.576;13.568;2024-03-22T09:25:20;9.40;85.60
9410;DHT22;4744;52.576;13.568;2024-03-22T09:27:47;9.50;84.70
9410;DHT22;4744;52.576;13.568;2024-03-22T09:30:13;9.60;84.60
9410;DHT22;4744;52.576;13.568;2024-03-22T09:32:42;9.70;84.60
9410;DHT22;4744;52.576;13.568;2024-03-22T09:35:08;9.70;84.60
9410;DHT22;4744;52.576;13.568;2024-03-22T09:37:35;9.80;84.00
9410;DHT22;4744;52.576;13.568;2024-03-22T09:40:01;9.80;83.70
9410;DHT22;4744;52.576;13.568;2024-03-22T09:42:33;10.00;83.90
9410;DHT22;4744;52.576;13.568;2024-03-22T09:44:59;10.00;82.70
9410;DHT22;4744;52.576;13.568;2024-03-22T09:47:27;10.10;83.20
9410;DHT22;4744;52.576;13.568;2024-03-22T09:49:55;10.10;82.80
9410;DHT22;4744;52.576;13.568;2024-03-22T09:52:23;10.20;82.40
9410;DHT22;4744;52.576;13.568;2024-03-22T09:54:49;10.30;82.10
9410;DHT22;4744;52.576;13.568;2024-03-22T09:57:18;10.30;81.70
9410;DHT22;4744;52.576;13.568;2024-03-22T09:59:44;10.30;81.70
9410;DHT22;4744;52.576;13.568;2024-03-22T10:02:12;10.40;81.60
9410;DHT22;4744;52.576;13.568;2024-03-22T10:04:38;10.40;81.70
9410;DHT22;4744;52.576;13.568;2024-03-22T10:07:07;10.40;81.30
9410;DHT22;4744;52.576;13.568;2024-03-22T10:09:34;10.50;81.50
9410;DHT22;4744;52.576;13.568;2024-03-22T10:12:00;10.50;81.30
9410;DHT22;4744;52.576;13.568;2024-03-22T10:14:27;10.50;81.00
9410;DHT22;4744;52.576;13.568;2024-03-22T10:16:55;10.50;81.40
9410;DHT22;4744;52.576;13.568;2024-03-22T10:19:21;10.60;80.80
9410;DHT22;4744;52.576;13.568;2024-03-22T10:21:59;10.60;80.30
9410;DHT22;4744;52.576;13.568;2024-03-22T10:24:27;10.60;79.90
9410;DHT22;4744;52.576;13.568;2024-03-22T10:26:54;10.60;80.00
9410;DHT22;4744;52.576;13.568;2024-03-22T10:29:20;10.60;81.10
9410;DHT22;4744;52.576;13.568;2024-03-22T10:31:47;10.70;80.60
9410;DHT22;4744;52.576;13.568;2024-03-22T10:34:14;10.70;80.40
9410;DHT22;4744;52.576;13.568;2024-03-22T10:36:42;10.80;79.70
9410;DHT22;4744;52.576;13.568;2024-03-22T10:39:09;10.80;80.30
9410;DHT22;4744;52.576;13.568;2024-03-22T10:41:38;10.90;80.00
9410;DHT22;4744;52.576;13.568;2024-03-22T10:44:04;11.00;79.50
9410;DHT22;4744;52.576;13.568;2024-03-22T10:46:34;11.10;78.50
9410;DHT22;4744;52.576;13.568;2024-03-22T10:49:02;11.20;78.80
9410;DHT22;4744;52.576;13.568;2024-03-22T10:51:30;11.30;78.10
9410;DHT22;4744;52.576;13.568;2024-03-22T10:53:59;11.40;77.70
9410;DHT22;4744;52.576;13.568;2024-03-22T10:56:26;11.40;77.60
9410;DHT22;4744;52.576;13.568;2024-03-22T10:58:55;11.50;76.40
9410;DHT22;4744;52.576;13.568;2024-03-22T11:01:23;11.50;76.70
9410;DHT22;4744;52.576;13.568;2024-03-22T11:03:49;11.50;77.10
9410;DHT22;4744;52.576;13.568;2024-03-22T11:06:19;11.60;76.40
9410;DHT22;4744;52.576;13.568;2024-03-22T11:08:49;11.80;76.10
9410;DHT22;4744;52.576;13.568;2024-03-22T11:11:18;11.80;75.20
9410;DHT22;4744;52.576;13.568;2024-03-22T11:13:46;11.80;75.50
9410;DHT22;4744;52.576;13.568;2024-03-22T11:16:15;11.90;76.20
9410;DHT22;4744;52.576;13.568;2024-03-22T11:18:42;11.90;75.90
9410;DHT22;4744;52.576;13.568;2024-03-22T11:21:09;11.90;76.20
9410;DHT22;4744;52.576;13.568;2024-03-22T11:23:35;11.90;75.90
9410;DHT22;4744;52.576;13.568;2024-03-22T11:26:03;12.00;75.20
9410;DHT22;4744;52.576;13.568;2024-03-22T11:28:29;12.00;74.80
9410;DHT22;4744;52.576;13.568;2024-03-22T11:30:56;12.00;75.20
9410;DHT22;4744;52.576;13.568;2024-03-22T11:33:23;12.00;74.60
9410;DHT22;4744;52.576;13.568;2024-03-22T11:35:52;11.90;74.80
9410;DHT22;4744;52.576;13.568;2024-03-22T11:38:18;11.90;74.20
9410;DHT22;4744;52.576;13.568;2024-03-22T11:40:45;11.70;74.60
9410;DHT22;4744;52.576;13.568;2024-03-22T11:43:12;11.70;75.10
9410;DHT22;4744;52.576;13.568;2024-03-22T11:45:41;11.70;76.20
9410;DHT22;4744;52.576;13.568;2024-03-22T11:48:09;11.70;77.30
9410;DHT22;4744;52.576;13.568;2024-03-22T11:50:38;11.70;78.70
9410;DHT22;4744;52.576;13.568;2024-03-22T11:53:05;11.70;78.70
9410;DHT22;4744;52.576;13.568;2024-03-22T11:55:33;11.60;79.10
9410;DHT22;4744;52.576;13.568;2024-03-22T11:58:01;11.50;79.20
9410;DHT22;4744;52.576;13.568;2024-03-22T12:00:28;11.50;80.60
9410;DHT22;4744;52.576;13.568;2024-03-22T12:02:54;11.40;80.90
9410;DHT22;4744;52.576;13.568;2024-03-22T12:05:21;11.30;81.20
9410;DHT22;4744;52.576;13.568;2024-03-22T12:07:50;11.30;83.00
9410;DHT22;4744;52.576;13.568;2024-03-22T12:10:18;11.30;82.60
9410;DHT22;4744;52.576;13.568;2024-03-22T12:12:44;11.30;83.20
9410;DHT22;4744;52.576;13.568;2024-03-22T12:15:11;11.30;83.70
9410;DHT22;4744;52.576;13.568;2024-03-22T12:17:37;11.20;83.50
9410;DHT22;4744;52.576;13.568;2024-03-22T12:20:07;11.20;83.70
9410;DHT22;4744;52.576;13.568;2024-03-22T12:22:33;11.10;84.20
9410;DHT22;4744;52.576;13.568;2024-03-22T12:25:02;11.10;85.40
9410;DHT22;4744;52.576;13.568;2024-03-22T12:27:30;11.10;86.10
9410;DHT22;4744;52.576;13.568;2024-03-22T12:29:57;11.10;86.00
9410;DHT22;4744;52.576;13.568;2024-03-22T12:32:23;11.00;87.20
9410;DHT22;4744;52.576;13.568;2024-03-22T12:34:49;10.90;88.80
9410;DHT22;4744;52.576;13.568;2024-03-22T12:37:15;10.80;89.40
9410;DHT22;4744;52.576;13.568;2024-03-22T12:39:42;10.70;90.20
9410;DHT22;4744;52.576;13.568;2024-03-22T12:42:10;10.70;90.60
9410;DHT22;4744;52.576;13.568;2024-03-22T12:44:37;10.70;91.10
9410;DHT22;4744;52.576;13.568;2024-03-22T12:47:03;10.60;92.00
9410;DHT22;4744;52.576;13.568;2024-03-22T12:49:30;10.60;92.50
9410;DHT22;4744;52.576;13.568;2024-03-22T12:51:56;10.60;92.80
9410;DHT22;4744;52.576;13.568;2024-03-22T12:54:23;10.50;93.50
9410;DHT22;4744;52.576;13.568;2024-03-22T12:56:51;10.40;93.70
9410;DHT22;4744;52.576;13.568;2024-03-22T12:59:19;10.40;94.10
9410;DHT22;4744;52.576;13.568;2024-03-22T13:01:45;10.40;94.70
9410;DHT22;4744;52.576;13.568;2024-03-22T13:04:12;10.40;94.80
9410;DHT22;4744;52.576;13.568;2024-03-22T13:06:38;10.40;95.30
9410;DHT22;4744;52.576;13.568;2024-03-22T13:09:05;10.30;95.50
9410;DHT22;4744;52.576;13.568;2024-03-22T13:11:31;10.30;95.90
9410;DHT22;4744;52.576;13.568;2024-03-22T13:13:58;10.20;95.80
9410;DHT22;4744;52.576;13.568;2024-03-22T13:16:26;10.20;95.40
9410;DHT22;4744;52.576;13.568;2024-03-22T13:18:53;10.20;96.10
9410;DHT22;4744;52.576;13.568;2024-03-22T13:21:20;10.10;96.60
9410;DHT22;4744;52.576;13.568;2024-03-22T13:23:46;10.10;96.70
9410;DHT22;4744;52.576;13.568;2024-03-22T13:26:13;10.10;96.80
9410;DHT22;4744;52.576;13.568;2024-03-22T13:28:39;10.10;97.30
9410;DHT22;4744;52.576;13.568;2024-03-22T13:31:07;10.10;97.20
9410;DHT22;4744;52.576;13.568;2024-03-22T13:33:35;10.10;96.40
9410;DHT22;4744;52.576;13.568;2024-03-22T13:36:02;10.10;96.60
9410;DHT22;4744;52.576;13.568;2024-03-22T13:38:28;10.10;96.60
9410;DHT22;4744;52.576;13.568;2024-03-22T13:40:55;10.10;97.10
9410;DHT22;4744;52.576;13.568;2024-03-22T13:43:22;10.10;96.90
9410;DHT22;4744;52.576;13.568;2024-03-22T13:45:51;10.10;96.50
9410;DHT22;4744;52.576;13.568;2024-03-22T13:48:21;10.10;97.60
9410;DHT22;4744;52.576;13.568;2024-03-22T13:50:51;10.20;97.20
9410;DHT22;4744;52.576;13.568;2024-03-22T13:53:18;10.20;97.00
9410;DHT22;4744;52.576;13.568;2024-03-22T13:55:44;10.20;96.60
9410;DHT22;4744;52.576;13.568;2024-03-22T13:58:11;10.20;96.70
9410;DHT22;4744;52.576;13.568;2024-03-22T14:00:38;10.20;96.00
9410;DHT22;4744;52.576;13.568;2024-03-22T14:03:05;10.30;94.10
9410;DHT22;4744;52.576;13.568;2024-03-22T14:05:31;10.20;95.30
9410;DHT22;4744;52.576;13.568;2024-03-22T14:08:00;10.20;94.60
9410;DHT22;4744;52.576;13.568;2024-03-22T14:10:26;10.20;94.10
9410;DHT22;4744;52.576;13.568;2024-03-22T14:12:55;10.20;94.80
9410;DHT22;4744;52.576;13.568;2024-03-22T14:15:21;10.20;94.70
9410;DHT22;4744;52.576;13.568;2024-03-22T14:17:54;10.30;94.00
9410;DHT22;4744;52.576;13.568;2024-03-22T14:20:21;10.20;94.00
9410;DHT22;4744;52.576;13.568;2024-03-22T14:22:48;10.20;93.70
9410;DHT22;4744;52.576;13.568;2024-03-22T14:25:15;10.30;93.50
9410;DHT22;4744;52.576;13.568;2024-03-22T14:27:42;10.20;93.40
9410;DHT22;4744;52.576;13.568;2024-03-22T14:30:11;10.20;92.90
9410;DHT22;4744;52.576;13.568;2024-03-22T14:32:39;10.20;92.60
9410;DHT22;4744;52.576;13.568;2024-03-22T14:35:06;10.20;92.90
9410;DHT22;4744;52.576;13.568;2024-03-22T14:37:34;10.20;92.80
9410;DHT22;4744;52.576;13.568;2024-03-22T14:39:59;10.20;93.40
9410;DHT22;4744;52.576;13.568;2024-03-22T14:42:28;10.30;94.00
9410;DHT22;4744;52.576;13.568;2024-03-22T14:44:54;10.30;94.00
9410;DHT22;4744;52.576;13.568;2024-03-22T14:47:22;10.30;94.80
9410;DHT22;4744;52.576;13.568;2024-03-22T14:49:49;10.30;95.00
9410;DHT22;4744;52.576;13.568;2024-03-22T14:52:17;10.30;95.30
9410;DHT22;4744;52.576;13.568;2024-03-22T14:54:42;10.40;95.40
9410;DHT22;4744;52.576;13.568;2024-03-22T14:57:10;10.40;95.60
9410;DHT22;4744;52.576;13.568;2024-03-22T14:59:37;10.40;94.80
9410;DHT22;4744;52.576;13.568;2024-03-22T15:02:05;10.40;95.10
9410;DHT22;4744;52.576;13.568;2024-03-22T15:04:31;10.50;94.40
9410;DHT22;4744;52.576;13.568;2024-03-22T15:06:58;10.50;94.10
9410;DHT22;4744;52.576;13.568;2024-03-22T15:09:24;10.50;94.10
9410;DHT22;4744;52.576;13.568;2024-03-22T15:11:50;10.60;93.60
9410;DHT22;4744;52.576;13.568;2024-03-22T15:14:16;10.60;93.70
9410;DHT22;4744;52.576;13.568;2024-03-22T15:16:45;10.60;92.60
9410;DHT22;4744;52.576;13.568;2024-03-22T15:19:10;10.60;92.50
9410;DHT22;4744;52.576;13.568;2024-03-22T15:21:37;10.60;92.80
9410;DHT22;4744;52.576;13.568;2024-03-22T15:24:04;10.60;92.80
9410;DHT22;4744;52.576;13.568;2024-03-22T15:26:31;10.60;93.00
9410;DHT22;4744;52.576;13.568;2024-03-22T15:28:57;10.60;92.20
9410;DHT22;4744;52.576;13.568;2024-03-22T15:31:24;10.60;92.20
9410;DHT22;4744;52.576;13.568;2024-03-22T15:33:51;10.60;92.60
9410;DHT22;4744;52.576;13.568;2024-03-22T15:36:18;10.60;92.00
9410;DHT22;4744;52.576;13.568;2024-03-22T15:38:44;10.60;92.00
9410;DHT22;4744;52.576;13.568;2024-03-22T15:41:11;10.60;92.30
9410;DHT22;4744;52.576;13.568;2024-03-22T15:43:37;10.60;92.50
9410;DHT22;4744;52.576;13.568;2024-03-22T15:46:05;10.60;92.20
9410;DHT22;4744;52.576;13.568;2024-03-22T15:48:31;10.60;92.40
9410;DHT22;4744;52.576;13.568;2024-03-22T15:50:59;10.50;92.30
9410;DHT22;4744;52.576;13.568;2024-03-22T15:53:25;10.50;92.60
9410;DHT22;4744;52.576;13.568;2024-03-22T15:55:52;10.50;93.30